Time;durP1;ratioP1;P1;durP2;ratioP2;P2;SDS_P1;SDS_P2;PMS_P1;PMS_P2;Temp;Humidity;BMP_temperature;BMP_pressure;BME280_temperature;BME280_humidity;BME280_pressure;Samples;Min_cycle;Max_cycle;Signal;HPM_P1;HPM_P2
2022/01/26 00:06:57;;;;;;;18.67;10.57;;;-2.10;90.00;;;;;;5052374;28;20430;-75
2022/01/26 00:09:26;;;;;;;27.03;13.90;;;-2.00;89.90;;;;;;5052585;28;20456;-76
2022/01/26 00:11:56;;;;;;;44.60;27.50;;;-1.90;89.90;;;;;;5052407;28;20451;-76
2022/01/26 00:14:23;;;;;;;54.80;31.80;;;-1.90;89.00;;;;;;5052260;28;20513;-75
2022/01/26 00:16:50;;;;;;;60.67;33.17;;;-1.90;88.60;;;;;;5051716;28;20495;-74
2022/01/26 00:19:21;;;;;;;59.00;31.63;;;-1.90;88.20;;;;;;5052142;28;20457;-75
2022/01/26 00:21:51;;;;;;;60.17;32.47;;;-1.90;87.30;;;;;;5052381;28;20513;-75
2022/01/26 00:27:07;;;;;;;58.57;34.43;;;-2.10;88.90;;;;;;5052293;28;20425;-74
2022/01/26 00:29:36;;;;;;;66.77;34.90;;;-2.10;89.60;;;;;;5051851;28;20463;-74
2022/01/26 00:40:30;;;;;;;70.43;38.63;;;-2.20;89.60;;;;;;5050943;28;20487;-75
2022/01/26 00:43:04;;;;;;;77.70;39.03;;;-2.40;88.90;;;;;;5051818;28;20973;-76
2022/01/26 00:45:35;;;;;;;80.33;39.80;;;-2.40;89.20;;;;;;5051542;28;20865;-75
2022/01/26 00:48:06;;;;;;;71.27;38.93;;;-2.50;89.50;;;;;;5051852;28;20497;-74
2022/01/26 00:50:34;;;;;;;69.50;38.57;;;-2.50;89.50;;;;;;5051910;28;21332;-72
2022/01/26 00:53:01;;;;;;;73.63;42.03;;;-2.50;89.90;;;;;;5052564;28;20479;-74
2022/01/26 00:55:28;;;;;;;85.07;44.47;;;-2.50;90.10;;;;;;5053157;28;20470;-74
2022/01/26 00:57:55;;;;;;;71.97;41.23;;;-2.60;90.00;;;;;;5054756;28;20446;-75
2022/01/26 01:00:25;;;;;;;75.13;41.20;;;-2.60;90.00;;;;;;5054375;28;20463;-75
2022/01/26 01:02:55;;;;;;;65.93;40.20;;;-2.50;90.00;;;;;;5053409;28;20489;-74
2022/01/26 01:05:27;;;;;;;65.23;39.30;;;-2.50;89.70;;;;;;5051929;28;20454;-75
2022/01/26 01:08:01;;;;;;;59.03;36.87;;;-2.60;89.70;;;;;;5052049;28;20578;-76
2022/01/26 01:10:28;;;;;;;69.70;37.30;;;-2.60;90.00;;;;;;5051571;28;20452;-74
2022/01/26 01:12:57;;;;;;;66.87;34.00;;;-2.70;90.50;;;;;;5050858;28;20483;-74
2022/01/26 01:15:27;;;;;;;60.40;32.53;;;-2.90;91.50;;;;;;5051184;28;20462;-75
2022/01/26 01:18:04;;;;;;;58.23;28.93;;;-3.10;92.10;;;;;;5051025;28;20954;-74
2022/01/26 01:20:48;;;;;;;49.73;29.90;;;-3.20;92.30;;;;;;5051488;28;20878;-76
2022/01/26 01:23:39;;;;;;;54.00;32.43;;;-3.20;92.10;;;;;;5051089;28;20481;-74
2022/01/26 01:26:43;;;;;;;51.67;30.90;;;-3.00;91.40;;;;;;5051085;28;20463;-74
2022/01/26 01:29:19;;;;;;;55.90;27.87;;;-2.90;91.20;;;;;;5051200;28;20535;-75
2022/01/26 01:31:51;;;;;;;52.17;27.60;;;-3.10;91.80;;;;;;5050776;28;20463;-75
2022/01/26 01:34:20;;;;;;;48.40;25.90;;;-3.00;91.70;;;;;;5050870;28;20890;-75
2022/01/26 01:36:50;;;;;;;45.23;24.40;;;-2.90;91.40;;;;;;5050706;28;20455;-75
2022/01/26 01:39:17;;;;;;;45.90;23.60;;;-3.00;92.20;;;;;;5050778;28;20930;-75
2022/01/26 01:41:46;;;;;;;36.73;23.17;;;-2.90;91.60;;;;;;5050773;28;20453;-75
2022/01/26 01:44:13;;;;;;;38.10;22.27;;;-2.70;91.20;;;;;;5050498;28;20478;-75
2022/01/26 01:46:42;;;;;;;32.27;19.93;;;-3.10;91.50;;;;;;5050348;28;20860;-74
2022/01/26 01:49:12;;;;;;;35.47;19.90;;;-3.30;92.80;;;;;;5050397;28;20543;-76
2022/01/26 01:51:44;;;;;;;36.77;20.50;;;-3.40;93.10;;;;;;5050529;28;20455;-74
2022/01/26 01:54:14;;;;;;;34.77;19.10;;;-3.50;93.70;;;;;;5050596;28;20484;-73
2022/01/26 01:56:43;;;;;;;39.50;20.27;;;-3.60;94.10;;;;;;5050617;28;21062;-74
2022/01/26 01:59:10;;;;;;;35.07;19.20;;;-3.40;93.80;;;;;;5050400;28;20453;-75
2022/01/26 02:01:38;;;;;;;31.90;19.90;;;-3.60;94.20;;;;;;5050255;28;20540;-75
2022/01/26 02:04:05;;;;;;;30.00;19.23;;;-3.60;94.90;;;;;;5050349;28;20474;-74
2022/01/26 02:06:34;;;;;;;29.00;16.63;;;-3.40;94.90;;;;;;5050309;28;20502;-75
2022/01/26 02:09:01;;;;;;;32.77;19.80;;;-3.50;94.60;;;;;;5049753;28;20496;-75
2022/01/26 02:11:28;;;;;;;34.13;17.80;;;-3.20;93.70;;;;;;5049828;28;20522;-75
2022/01/26 02:14:01;;;;;;;34.77;17.83;;;-3.00;93.10;;;;;;5049833;28;20986;-75
2022/01/26 02:16:33;;;;;;;30.40;16.67;;;-3.00;93.20;;;;;;5049675;28;20493;-74
2022/01/26 02:52:39;;;;;;;33.43;19.23;;;-2.50;93.20;;;;;;5026836;28;20487;-72
2022/01/26 02:58:08;;;;;;;30.60;18.23;;;-2.20;92.20;;;;;;5047611;28;20746;-70
2022/01/26 03:00:46;;;;;;;26.97;19.30;;;-2.30;92.60;;;;;;5048243;28;20520;-71
2022/01/26 03:03:18;;;;;;;28.17;18.67;;;-2.20;92.70;;;;;;5050344;28;20472;-70
2022/01/26 03:05:52;;;;;;;29.63;18.90;;;-2.30;92.90;;;;;;5053376;28;20919;-71
2022/01/26 03:08:28;;;;;;;31.33;19.07;;;-2.30;93.60;;;;;;5053561;28;20552;-71
2022/01/26 03:11:00;;;;;;;32.43;18.80;;;-2.60;94.80;;;;;;5052316;28;21232;-71
2022/01/26 03:13:31;;;;;;;43.70;24.67;;;-2.40;94.20;;;;;;5053532;28;20569;-71
2022/01/26 03:16:03;;;;;;;43.57;25.27;;;-2.50;95.30;;;;;;5053082;28;20456;-72
2022/01/26 03:18:52;;;;;;;44.77;27.33;;;-2.50;95.10;;;;;;5053211;28;20447;-72
2022/01/26 03:21:26;;;;;;;41.50;26.57;;;-2.40;94.70;;;;;;5053302;28;20940;-70
2022/01/26 03:29:42;;;;;;;43.07;25.00;;;-1.90;93.80;;;;;;5031964;28;20477;-70
2022/01/26 03:34:52;;;;;;;36.20;21.30;;;-2.20;94.40;;;;;;5052899;28;20434;-72
2022/01/26 03:37:22;;;;;;;45.27;22.53;;;-2.00;94.00;;;;;;5053047;28;20458;-71
2022/01/26 03:39:51;;;;;;;37.50;21.03;;;-2.00;94.10;;;;;;5053050;28;20530;-71
2022/01/26 03:42:20;;;;;;;34.33;19.53;;;-2.00;94.40;;;;;;5052895;28;20453;-71
2022/01/26 03:44:47;;;;;;;32.03;18.07;;;-2.20;95.00;;;;;;5053059;28;20558;-70
2022/01/26 03:47:14;;;;;;;35.50;21.57;;;-2.00;94.30;;;;;;5052513;28;20917;-70
2022/01/26 03:49:42;;;;;;;30.83;18.87;;;-1.90;94.20;;;;;;5052612;28;20488;-73
2022/01/26 03:52:10;;;;;;;33.77;20.37;;;-1.90;94.30;;;;;;5052703;28;20565;-70
2022/01/26 03:54:37;;;;;;;35.93;20.60;;;-1.80;94.40;;;;;;5052701;28;20452;-71
2022/01/26 03:57:05;;;;;;;36.63;19.13;;;-1.70;93.10;;;;;;5052665;28;20458;-71
2022/01/26 03:59:33;;;;;;;32.33;19.60;;;-1.80;94.10;;;;;;5052740;28;20529;-70
2022/01/26 04:02:00;;;;;;;33.17;19.80;;;-1.70;93.70;;;;;;5052585;28;20855;-71
2022/01/26 04:04:30;;;;;;;35.73;18.83;;;-1.60;92.70;;;;;;5052452;28;20546;-71
2022/01/26 04:06:59;;;;;;;32.30;18.30;;;-1.60;93.00;;;;;;5052446;28;20455;-71
2022/01/26 04:09:26;;;;;;;31.00;19.10;;;-1.60;92.50;;;;;;5052396;28;20497;-71
2022/01/26 04:11:53;;;;;;;33.80;19.40;;;-1.60;92.60;;;;;;5052494;28;20461;-70
2022/01/26 04:14:25;;;;;;;31.03;18.23;;;-1.70;93.50;;;;;;5051885;28;20477;-72
2022/01/26 04:16:54;;;;;;;28.00;16.07;;;-1.70;93.70;;;;;;5051612;28;20487;-71
2022/01/26 04:19:22;;;;;;;27.63;15.57;;;-1.70;93.60;;;;;;5052386;28;20455;-71
2022/01/26 04:22:05;;;;;;;22.70;12.27;;;-1.70;94.10;;;;;;5052282;28;20959;-71
2022/01/26 04:24:36;;;;;;;22.13;13.90;;;-1.50;93.50;;;;;;5051653;28;20470;-72
2022/01/26 04:27:12;;;;;;;19.60;13.37;;;-1.30;93.30;;;;;;5051977;28;20468;-71
2022/01/26 04:29:39;;;;;;;24.53;13.60;;;-1.40;93.70;;;;;;5052205;28;20770;-71
2022/01/26 04:32:09;;;;;;;21.37;13.40;;;-1.30;93.80;;;;;;5051910;28;20970;-72
2022/01/26 04:34:36;;;;;;;27.10;12.67;;;-1.20;93.50;;;;;;5051976;28;20953;-71
2022/01/26 04:37:12;;;;;;;18.20;11.20;;;-1.00;92.20;;;;;;5052024;28;20452;-71
2022/01/26 04:39:44;;;;;;;18.03;9.67;;;-1.10;92.40;;;;;;5051803;28;20559;-71
2022/01/26 04:42:15;;;;;;;17.80;9.70;;;-1.30;92.00;;;;;;5051586;28;20993;-70
2022/01/26 04:44:48;;;;;;;16.80;9.70;;;-1.30;93.30;;;;;;5051633;28;20798;-71
2022/01/26 04:47:16;;;;;;;16.67;10.07;;;-1.40;93.60;;;;;;5051859;28;20832;-71
2022/01/26 04:49:43;;;;;;;16.37;8.20;;;-1.30;94.30;;;;;;5051663;28;20491;-71
2022/01/26 04:52:11;;;;;;;21.77;10.30;;;-1.20;92.90;;;;;;5051473;28;20483;-71
2022/01/26 04:54:38;;;;;;;15.27;8.80;;;-1.30;92.10;;;;;;5051736;28;20935;-70
2022/01/26 04:57:05;;;;;;;16.20;9.90;;;-1.40;91.70;;;;;;5051651;28;20453;-71
2022/01/26 04:59:32;;;;;;;17.60;9.80;;;-1.30;91.90;;;;;;5051575;28;20445;-71
2022/01/26 05:01:59;;;;;;;18.70;9.80;;;-1.30;92.10;;;;;;5051158;28;20539;-71
2022/01/26 05:04:28;;;;;;;16.63;10.10;;;-1.20;92.70;;;;;;5051301;28;20470;-71
2022/01/26 05:06:55;;;;;;;16.77;9.47;;;-1.20;92.40;;;;;;5051300;28;20455;-71
2022/01/26 05:09:22;;;;;;;19.47;10.27;;;-1.20;92.20;;;;;;5051316;28;20489;-71
2022/01/26 05:11:52;;;;;;;13.53;8.33;;;-1.20;92.00;;;;;;5051102;28;20526;-71
2022/01/26 05:14:19;;;;;;;17.70;10.33;;;-1.20;92.30;;;;;;5051284;28;20460;-71
2022/01/26 05:16:47;;;;;;;15.03;9.20;;;-1.10;92.20;;;;;;5050901;28;20540;-71
2022/01/26 05:19:14;;;;;;;16.27;10.30;;;-1.20;91.70;;;;;;5051144;28;20457;-71
2022/01/26 05:21:43;;;;;;;18.03;10.13;;;-1.20;91.50;;;;;;5050826;28;20988;-72
2022/01/26 05:24:11;;;;;;;16.00;9.20;;;-1.20;91.70;;;;;;5050714;28;20946;-71
2022/01/26 05:26:39;;;;;;;16.43;9.27;;;-1.30;91.90;;;;;;5050716;28;20511;-71
2022/01/26 05:29:06;;;;;;;16.97;9.80;;;-1.30;92.10;;;;;;5050787;28;21001;-72
2022/01/26 05:31:33;;;;;;;19.30;10.17;;;-1.20;92.70;;;;;;5050741;28;21032;-73
2022/01/26 05:34:00;;;;;;;16.80;9.53;;;-1.10;91.70;;;;;;5050767;28;20553;-73
2022/01/26 05:36:27;;;;;;;16.70;10.30;;;-1.10;91.40;;;;;;5050982;28;20519;-73
2022/01/26 05:38:56;;;;;;;18.73;9.30;;;-1.10;91.30;;;;;;5050727;28;21010;-71
2022/01/26 05:41:23;;;;;;;16.90;10.07;;;-1.10;91.40;;;;;;5051043;28;20452;-72
2022/01/26 05:43:50;;;;;;;14.37;9.33;;;-1.10;91.90;;;;;;5050800;28;20473;-73
2022/01/26 05:46:24;;;;;;;18.63;9.77;;;-1.10;91.00;;;;;;5050812;28;20453;-72
2022/01/26 05:48:52;;;;;;;18.97;10.20;;;-1.10;91.90;;;;;;5050521;28;20499;-75
2022/01/26 05:51:19;;;;;;;19.00;11.20;;;-1.00;91.80;;;;;;5050248;28;20552;-73
2022/01/26 05:53:46;;;;;;;17.57;10.37;;;-0.90;91.80;;;;;;5050530;28;20477;-76
2022/01/26 05:56:15;;;;;;;18.83;10.00;;;-0.90;92.10;;;;;;5049139;28;20867;-71
2022/01/26 05:58:42;;;;;;;21.43;10.20;;;-1.00;92.50;;;;;;5050371;28;20456;-73
2022/01/26 06:01:11;;;;;;;19.43;10.50;;;-0.90;92.80;;;;;;5049885;28;21044;-72
2022/01/26 06:03:38;;;;;;;16.17;10.30;;;-0.90;92.80;;;;;;5050191;28;20486;-72
2022/01/26 06:06:05;;;;;;;18.53;10.57;;;-0.80;93.50;;;;;;5050293;28;20456;-72
2022/01/26 06:08:32;;;;;;;18.07;9.83;;;-0.90;94.00;;;;;;5050199;28;20858;-72
2022/01/26 06:11:01;;;;;;;19.50;11.90;;;-0.90;94.00;;;;;;5050267;28;20457;-72
2022/01/26 06:13:30;;;;;;;17.30;11.10;;;-0.90;93.70;;;;;;5049891;28;20547;-72
2022/01/26 06:15:57;;;;;;;16.63;10.17;;;-1.10;94.90;;;;;;5050008;28;20459;-74
2022/01/26 06:18:24;;;;;;;21.37;12.40;;;-1.20;94.70;;;;;;5050141;28;20453;-72
2022/01/26 06:20:52;;;;;;;24.00;11.90;;;-1.10;95.70;;;;;;5050098;28;20449;-71
2022/01/26 06:23:24;;;;;;;24.73;11.53;;;-1.10;95.50;;;;;;5049983;28;20477;-76
2022/01/26 06:25:52;;;;;;;18.87;10.77;;;-1.10;95.90;;;;;;5049860;28;20515;-72
2022/01/26 06:28:21;;;;;;;23.90;13.50;;;-1.00;96.10;;;;;;5049939;28;20458;-71
2022/01/26 06:30:52;;;;;;;21.60;11.10;;;-1.00;95.90;;;;;;5050058;28;20656;-72
2022/01/26 06:33:20;;;;;;;24.83;12.73;;;-0.80;95.80;;;;;;5049827;28;20566;-71
2022/01/26 06:35:48;;;;;;;22.60;11.93;;;-1.00;96.40;;;;;;5050049;28;20441;-71
2022/01/26 06:38:15;;;;;;;23.90;12.53;;;-1.10;97.20;;;;;;5049287;28;20879;-78
2022/01/26 06:40:42;;;;;;;20.53;11.87;;;-1.10;97.50;;;;;;5049899;28;20483;-74
2022/01/26 06:43:12;;;;;;;23.53;13.80;;;-1.20;99.00;;;;;;5049663;28;20895;-73
2022/01/26 06:45:46;;;;;;;19.67;11.40;;;-1.00;99.30;;;;;;5049826;28;20925;-74
2022/01/26 06:48:42;;;;;;;21.50;13.13;;;-0.90;99.50;;;;;;5049725;28;20538;-75
2022/01/26 06:51:11;;;;;;;18.90;13.07;;;-0.80;99.30;;;;;;5050018;28;20441;-73
2022/01/26 06:53:38;;;;;;;17.53;11.07;;;-0.90;99.90;;;;;;5049523;28;20477;-72
2022/01/26 06:56:05;;;;;;;24.63;13.00;;;-0.80;99.90;;;;;;5049723;28;20452;-72
2022/01/26 06:58:32;;;;;;;20.77;11.30;;;-0.80;99.90;;;;;;5049705;28;20452;-69
2022/01/26 07:00:59;;;;;;;19.27;11.10;;;-0.80;99.90;;;;;;5049551;28;20986;-72
2022/01/26 07:03:28;;;;;;;28.53;14.37;;;-0.80;99.90;;;;;;5049178;28;20977;-71
2022/01/26 07:05:55;;;;;;;24.73;14.57;;;-0.90;99.90;;;;;;5049406;28;21050;-72
2022/01/26 07:08:22;;;;;;;23.60;12.57;;;-0.80;99.90;;;;;;5049655;28;20457;-74
2022/01/26 07:10:51;;;;;;;24.00;13.93;;;-0.80;99.90;;;;;;5049330;28;21004;-73
2022/01/26 07:13:19;;;;;;;25.30;14.50;;;-0.70;99.90;;;;;;5049450;28;20477;-73
2022/01/26 07:21:23;;;;;;;24.20;12.43;;;-0.70;99.90;;;;;;5049449;28;21007;-74
2022/01/26 07:23:50;;;;;;;23.40;12.90;;;-0.90;99.90;;;;;;5049414;28;20521;-72
2022/01/26 07:26:18;;;;;;;21.00;11.60;;;-0.70;99.90;;;;;;5048836;28;20583;-73
2022/01/26 07:28:45;;;;;;;27.00;14.20;;;-0.60;99.90;;;;;;5049346;28;20530;-74
2022/01/26 07:31:12;;;;;;;21.07;12.50;;;-0.50;99.90;;;;;;5049355;28;20481;-74
2022/01/26 07:33:42;;;;;;;23.57;13.37;;;-0.60;99.90;;;;;;5049459;28;20484;-71
2022/01/26 07:36:09;;;;;;;22.20;13.00;;;-0.70;99.90;;;;;;5049307;28;20471;-73
2022/01/26 07:38:36;;;;;;;24.17;12.50;;;-0.80;99.90;;;;;;5049253;28;20461;-72
2022/01/26 07:41:04;;;;;;;23.70;12.90;;;-0.60;99.90;;;;;;5048994;28;20453;-75
2022/01/26 07:43:31;;;;;;;19.80;12.13;;;-0.70;99.90;;;;;;5049189;28;20512;-75
2022/01/26 07:45:58;;;;;;;21.60;11.60;;;-0.70;99.90;;;;;;5049123;28;20457;-74
2022/01/26 07:48:26;;;;;;;21.63;13.27;;;-0.70;99.90;;;;;;5049324;28;20918;-72
2022/01/26 07:50:56;;;;;;;19.90;11.83;;;-0.50;99.90;;;;;;5052126;28;20489;-75
2022/01/26 07:53:23;;;;;;;22.70;12.33;;;-0.40;99.90;;;;;;5050517;28;20482;-74
2022/01/26 07:55:50;;;;;;;20.67;11.77;;;-0.40;99.90;;;;;;5052119;28;20468;-72
2022/01/26 07:58:19;;;;;;;22.73;12.50;;;-0.40;99.90;;;;;;5052220;28;20468;-67
2022/01/26 08:00:47;;;;;;;20.93;12.60;;;-0.50;99.90;;;;;;5052327;28;20522;-68
2022/01/26 08:03:14;;;;;;;23.47;12.53;;;-0.50;99.90;;;;;;5052536;28;20818;-71
2022/01/26 08:05:41;;;;;;;22.43;11.73;;;-0.50;99.90;;;;;;5052165;28;20451;-72
2022/01/26 08:08:10;;;;;;;22.63;12.20;;;-0.50;99.90;;;;;;5052240;28;20455;-72
2022/01/26 08:10:37;;;;;;;25.27;12.57;;;-0.50;99.90;;;;;;5052396;28;20679;-68
2022/01/26 08:13:05;;;;;;;19.77;10.90;;;-0.40;99.90;;;;;;5052078;28;20480;-68
2022/01/26 08:15:32;;;;;;;23.10;13.83;;;-0.40;99.90;;;;;;5052044;28;20465;-72
2022/01/26 08:18:00;;;;;;;20.03;11.73;;;-0.50;99.90;;;;;;5050900;28;20492;-69
2022/01/26 08:20:27;;;;;;;23.90;11.70;;;-0.40;99.90;;;;;;5051753;28;20927;-69
2022/01/26 08:22:56;;;;;;;22.40;11.77;;;-0.60;99.90;;;;;;5051456;28;20477;-71
2022/01/26 08:25:25;;;;;;;19.37;12.33;;;-0.50;99.90;;;;;;5052062;28;20523;-72
2022/01/26 08:27:58;;;;;;;19.90;11.00;;;-0.40;99.90;;;;;;5051938;28;20461;-73
2022/01/26 08:30:26;;;;;;;18.53;11.17;;;-0.30;99.90;;;;;;5051872;28;20486;-72
2022/01/26 08:32:53;;;;;;;20.03;11.70;;;-0.30;99.90;;;;;;5051875;28;20559;-71
2022/01/26 08:35:20;;;;;;;21.10;12.80;;;-0.20;99.90;;;;;;5051455;28;20492;-71
2022/01/26 08:37:48;;;;;;;22.00;11.67;;;-0.20;99.90;;;;;;5051525;28;20504;-72
2022/01/26 08:40:14;;;;;;;20.70;12.20;;;0.00;99.90;;;;;;5051712;28;20511;-72
2022/01/26 08:42:43;;;;;;;20.77;11.60;;;0.10;99.90;;;;;;5051787;28;20491;-71
2022/01/26 08:45:10;;;;;;;17.97;11.57;;;0.30;99.90;;;;;;5051314;28;21019;-71
2022/01/26 08:47:38;;;;;;;17.97;11.40;;;0.40;99.90;;;;;;5051323;28;20509;-73
2022/01/26 08:50:07;;;;;;;22.73;12.00;;;0.50;99.90;;;;;;5051650;28;20486;-73
2022/01/26 08:52:34;;;;;;;20.80;12.80;;;0.50;99.90;;;;;;5051257;28;20474;-71
2022/01/26 08:55:01;;;;;;;16.93;11.40;;;0.50;99.90;;;;;;5051300;28;20476;-70
2022/01/26 08:57:28;;;;;;;20.67;13.10;;;0.50;99.90;;;;;;5051545;28;20450;-69
2022/01/26 08:59:58;;;;;;;22.70;13.37;;;0.70;99.90;;;;;;5051173;28;20451;-69
2022/01/26 09:02:26;;;;;;;18.93;11.70;;;0.60;99.90;;;;;;5050569;28;20446;-70
2022/01/26 09:04:53;;;;;;;17.30;11.63;;;0.60;99.90;;;;;;5051146;28;20455;-69
2022/01/26 09:07:20;;;;;;;21.03;11.70;;;0.50;99.90;;;;;;5051279;28;20551;-74
2022/01/26 09:09:47;;;;;;;22.70;11.70;;;0.50;99.90;;;;;;5051322;28;20548;-71
2022/01/26 09:12:19;;;;;;;17.17;11.53;;;0.50;99.90;;;;;;5051412;28;20462;-72
2022/01/26 09:14:47;;;;;;;21.70;12.13;;;0.50;99.90;;;;;;5050581;28;20891;-76
2022/01/26 09:17:15;;;;;;;20.60;12.50;;;0.40;99.90;;;;;;5050621;28;20486;-74
2022/01/26 09:19:44;;;;;;;18.00;11.80;;;0.40;99.90;;;;;;5051709;28;20446;-74
2022/01/26 09:22:13;;;;;;;17.97;11.63;;;0.50;99.90;;;;;;5052911;28;20458;-73
2022/01/26 09:24:44;;;;;;;16.47;11.70;;;0.40;99.90;;;;;;5051317;28;20448;-73
2022/01/26 09:27:14;;;;;;;18.57;12.40;;;0.40;99.90;;;;;;5050806;28;20490;-73
2022/01/26 09:29:42;;;;;;;20.93;11.30;;;0.60;99.90;;;;;;5050533;28;20519;-73
2022/01/26 09:32:11;;;;;;;14.77;9.30;;;0.60;99.90;;;;;;5050650;28;20454;-73
2022/01/26 09:34:40;;;;;;;14.10;9.77;;;0.70;99.90;;;;;;5050712;28;20458;-72
2022/01/26 09:37:09;;;;;;;17.30;11.27;;;0.60;99.90;;;;;;5050629;28;20467;-73
2022/01/26 09:39:38;;;;;;;18.40;9.47;;;0.50;99.90;;;;;;5050671;28;20454;-72
2022/01/26 09:42:07;;;;;;;20.10;10.73;;;0.50;99.90;;;;;;5050556;28;20857;-71
2022/01/26 09:44:34;;;;;;;20.77;12.47;;;0.30;99.90;;;;;;5050136;28;20485;-72
2022/01/26 09:47:01;;;;;;;17.53;11.03;;;0.50;99.90;;;;;;5050656;28;20564;-71
2022/01/26 09:49:32;;;;;;;19.50;9.37;;;0.50;99.90;;;;;;5050402;28;20786;-71
2022/01/26 09:52:06;;;;;;;17.30;10.47;;;0.50;99.90;;;;;;5050332;28;20853;-72
2022/01/26 09:54:36;;;;;;;16.20;9.70;;;0.60;99.90;;;;;;5050125;28;20569;-72
2022/01/26 09:57:04;;;;;;;15.63;10.07;;;0.60;99.90;;;;;;5050408;28;20449;-74
2022/01/26 09:59:33;;;;;;;15.00;10.33;;;0.70;99.90;;;;;;5050350;28;20504;-74
2022/01/26 10:02:01;;;;;;;20.27;11.07;;;0.70;99.90;;;;;;5050426;28;20462;-73
2022/01/26 10:04:32;;;;;;;18.10;11.00;;;0.80;99.90;;;;;;5050259;28;20939;-74
2022/01/26 10:07:13;;;;;;;18.93;12.37;;;0.80;99.90;;;;;;5049997;28;20819;-73
2022/01/26 10:18:09;;;;;;;24.40;10.87;;;0.30;99.90;;;;;;5045771;28;20489;-73
2022/01/26 10:20:44;;;;;;;17.80;10.97;;;0.40;99.90;;;;;;5050564;28;20480;-70
2022/01/26 10:23:17;;;;;;;19.33;10.47;;;0.40;99.90;;;;;;5049872;28;21008;-69
2022/01/26 10:25:46;;;;;;;14.20;10.20;;;0.40;99.90;;;;;;5049599;28;20453;-72
2022/01/26 10:28:16;;;;;;;14.70;9.43;;;0.40;99.90;;;;;;5049711;28;20528;-70
2022/01/26 10:30:45;;;;;;;17.33;9.97;;;0.30;99.90;;;;;;5049594;28;20497;-70
2022/01/26 10:33:13;;;;;;;16.63;10.90;;;0.40;99.90;;;;;;5049773;28;20604;-72
2022/01/26 10:35:40;;;;;;;18.53;10.67;;;0.20;99.90;;;;;;5049546;28;20449;-73
2022/01/26 10:38:07;;;;;;;14.63;9.73;;;0.30;99.90;;;;;;5049555;28;20587;-73
2022/01/26 10:40:38;;;;;;;18.73;11.10;;;0.40;99.90;;;;;;5049706;28;20445;-72
2022/01/26 10:43:09;;;;;;;16.27;10.80;;;0.50;99.90;;;;;;5049566;28;20527;-71
2022/01/26 10:45:47;;;;;;;11.50;8.67;;;0.50;99.90;;;;;;5049549;28;21017;-73
2022/01/26 10:48:24;;;;;;;18.80;11.77;;;0.60;99.90;;;;;;5049464;28;20939;-71
2022/01/26 10:53:40;;;;;;;14.57;10.63;;;0.60;99.90;;;;;;5042083;28;20985;-71
2022/01/26 10:56:09;;;;;;;17.70;11.43;;;0.60;99.90;;;;;;5029442;28;20462;-74
2022/01/26 10:58:38;;;;;;;20.07;12.23;;;0.60;99.90;;;;;;5029443;28;20458;-74
2022/01/26 11:01:06;;;;;;;17.87;10.47;;;0.70;99.90;;;;;;5029420;28;20759;-71
2022/01/26 11:03:33;;;;;;;16.87;11.63;;;0.80;99.90;;;;;;5029378;28;20475;-75
2022/01/26 11:06:01;;;;;;;15.53;10.20;;;0.90;99.90;;;;;;5029600;28;20463;-75
2022/01/26 11:08:30;;;;;;;17.70;10.80;;;1.00;99.90;;;;;;5029572;28;20890;-74
2022/01/26 11:10:57;;;;;;;16.87;10.47;;;1.10;99.90;;;;;;5028989;28;21065;-71
2022/01/26 11:13:28;;;;;;;13.90;8.83;;;1.10;99.90;;;;;;5029232;28;21005;-72
2022/01/26 11:16:07;;;;;;;18.07;11.07;;;1.10;99.90;;;;;;5029149;28;20538;-69
2022/01/26 11:18:45;;;;;;;15.70;10.50;;;1.00;99.90;;;;;;5029398;28;20999;-73
2022/01/26 11:21:16;;;;;;;15.10;8.80;;;0.90;99.90;;;;;;5028999;28;20538;-71
2022/01/26 11:23:43;;;;;;;16.47;9.70;;;1.00;99.90;;;;;;5029177;28;20475;-72
2022/01/26 11:26:23;;;;;;;15.63;10.83;;;1.10;99.90;;;;;;5032824;28;20446;-71
2022/01/26 11:28:52;;;;;;;17.30;10.73;;;1.30;99.90;;;;;;5033174;28;20537;-73
2022/01/26 11:31:19;;;;;;;15.20;10.40;;;1.30;99.90;;;;;;5033296;28;20494;-76
2022/01/26 11:33:49;;;;;;;15.07;9.00;;;1.40;99.90;;;;;;5033366;28;20585;-72
2022/01/26 11:36:18;;;;;;;16.07;9.50;;;1.40;99.90;;;;;;5033073;28;20455;-72
2022/01/26 11:42:21;;;;;;;13.13;8.70;;;1.00;99.90;;;;;;4990926;28;20487;-72
2022/01/26 11:45:06;;;;;;;14.80;8.90;;;1.00;99.90;;;;;;5033079;28;20454;-70
2022/01/26 11:47:34;;;;;;;16.63;9.10;;;0.90;99.90;;;;;;5032587;28;20454;-73
2022/01/26 11:50:09;;;;;;;13.23;9.40;;;1.00;99.90;;;;;;5032767;28;20454;-70
2022/01/26 11:52:38;;;;;;;16.57;9.93;;;1.00;99.90;;;;;;5032935;28;20501;-71
2022/01/26 11:55:19;;;;;;;14.43;9.27;;;1.00;99.90;;;;;;5032184;28;20457;-71
2022/01/26 11:57:50;;;;;;;16.83;10.80;;;1.10;99.90;;;;;;5032703;28;20529;-72
2022/01/26 12:00:36;;;;;;;15.70;9.50;;;1.10;99.90;;;;;;5031158;28;20980;-71
2022/01/26 12:03:08;;;;;;;13.93;9.20;;;1.20;99.90;;;;;;5032677;28;20485;-70
2022/01/26 12:05:45;;;;;;;15.20;9.17;;;1.10;99.90;;;;;;5041316;28;20552;-72
2022/01/26 12:08:13;;;;;;;14.60;9.57;;;1.20;99.90;;;;;;5052332;28;20459;-69
2022/01/26 12:10:40;;;;;;;14.77;9.40;;;1.10;99.90;;;;;;5052040;28;20485;-68
2022/01/26 12:13:10;;;;;;;17.50;11.10;;;1.10;99.90;;;;;;5052093;28;20568;-71
2022/01/26 12:15:44;;;;;;;15.60;10.20;;;1.20;99.90;;;;;;5052419;28;20465;-71
2022/01/26 12:18:30;;;;;;;16.77;10.37;;;1.10;99.90;;;;;;5051727;28;20494;-73
2022/01/26 12:32:21;;;;;;;15.57;9.50;;;1.10;99.90;;;;;;5052037;28;20671;-73
2022/01/26 12:34:57;;;;;;;16.70;10.80;;;0.90;99.90;;;;;;5052046;28;20454;-73
2022/01/26 12:37:37;;;;;;;15.33;10.97;;;0.80;99.90;;;;;;5050754;28;20474;-73
2022/01/26 12:43:06;;;;;;;16.27;9.33;;;1.00;99.90;;;;;;5054736;28;20450;-77
2022/01/26 12:45:34;;;;;;;13.13;8.40;;;0.90;99.90;;;;;;5056102;28;20458;-74
2022/01/26 12:48:02;;;;;;;15.07;9.73;;;0.90;99.90;;;;;;5057131;28;20478;-73
2022/01/26 12:50:30;;;;;;;17.10;10.40;;;0.90;99.90;;;;;;5052495;28;20456;-73
2022/01/26 12:52:58;;;;;;;16.27;10.33;;;1.00;99.90;;;;;;5049881;28;20478;-74
2022/01/26 12:55:29;;;;;;;17.97;11.60;;;1.10;99.90;;;;;;5031910;28;20447;-75
2022/01/26 12:57:56;;;;;;;14.13;9.30;;;1.00;99.90;;;;;;5031217;28;21007;-78
2022/01/26 13:00:25;;;;;;;15.53;9.50;;;1.00;99.90;;;;;;5031390;28;20538;-75
2022/01/26 13:02:53;;;;;;;14.70;8.73;;;1.10;99.90;;;;;;5031177;28;20851;-69
2022/01/26 13:05:26;;;;;;;19.57;10.87;;;1.20;99.90;;;;;;5031517;28;20451;-74
2022/01/26 13:08:01;;;;;;;15.97;9.77;;;1.30;99.90;;;;;;5031714;28;20821;-73
2022/01/26 13:10:28;;;;;;;16.47;9.73;;;1.30;99.90;;;;;;5031160;28;20895;-72
2022/01/26 13:12:56;;;;;;;13.60;9.80;;;1.40;99.90;;;;;;5031230;28;20527;-74
2022/01/26 13:15:40;;;;;;;17.43;10.53;;;1.40;99.90;;;;;;5031591;28;20460;-74
2022/01/26 13:18:23;;;;;;;13.50;8.63;;;1.50;99.90;;;;;;5030773;28;20837;-75
2022/01/26 13:23:46;;;;;;;14.00;8.83;;;1.70;99.90;;;;;;5030346;28;20478;-73
2022/01/26 13:26:21;;;;;;;12.50;8.80;;;1.70;99.90;;;;;;5031259;28;20477;-73
2022/01/26 13:29:00;;;;;;;17.13;9.77;;;1.70;99.90;;;;;;5031080;28;20459;-73
2022/01/26 13:32:01;;;;;;;12.30;8.77;;;1.60;99.90;;;;;;5031175;28;20575;-73
2022/01/26 13:37:30;;;;;;;15.83;10.07;;;1.60;99.90;;;;;;5019618;28;20443;-73
2022/01/26 13:40:11;;;;;;;15.80;10.10;;;1.50;99.90;;;;;;5030687;28;20548;-74
2022/01/26 13:48:35;;;;;;;17.93;10.27;;;1.50;99.90;;;;;;5030028;28;20445;-72
2022/01/26 13:51:10;;;;;;;14.47;9.10;;;1.40;99.90;;;;;;5030494;28;20479;-73
2022/01/26 13:53:49;;;;;;;13.93;9.47;;;1.50;99.90;;;;;;5030118;28;20553;-74
2022/01/26 13:56:29;;;;;;;16.10;10.50;;;1.60;99.90;;;;;;5030253;28;20517;-75
2022/01/26 13:59:08;;;;;;;12.90;9.33;;;1.60;99.90;;;;;;5030310;28;20795;-74
2022/01/26 14:01:41;;;;;;;12.90;9.37;;;1.60;99.90;;;;;;5030312;28;20467;-74
2022/01/26 14:04:08;;;;;;;17.20;9.80;;;1.40;99.90;;;;;;5029970;28;20511;-74
2022/01/26 14:06:35;;;;;;;15.90;9.70;;;1.30;99.90;;;;;;5029995;28;20454;-74
2022/01/26 14:09:03;;;;;;;15.47;10.80;;;1.40;99.90;;;;;;5030051;28;20456;-74
2022/01/26 14:11:30;;;;;;;13.83;9.17;;;1.50;99.90;;;;;;5029598;28;20495;-74
2022/01/26 14:13:59;;;;;;;15.00;9.70;;;1.60;99.90;;;;;;5030201;28;20884;-70
2022/01/26 14:16:32;;;;;;;13.73;8.93;;;1.70;99.90;;;;;;5030347;28;20490;-74
2022/01/26 14:24:33;;;;;;;12.63;8.40;;;1.50;99.90;;;;;;5030016;28;20982;-76
2022/01/26 14:27:03;;;;;;;13.70;9.93;;;1.40;99.90;;;;;;5029794;28;20505;-77
2022/01/26 14:32:30;;;;;;;15.00;9.23;;;1.40;99.90;;;;;;5031903;28;20500;-76
2022/01/26 14:41:02;;;;;;;15.40;8.67;;;1.40;99.90;;;;;;4987180;28;20451;-73
2022/01/26 15:33:30;;;;;;;14.47;11.20;;;0.90;99.90;;;;;;5026645;28;20973;-73
2022/01/26 15:41:46;;;;;;;14.80;10.63;;;1.00;99.90;;;;;;5032693;28;21503;-71
2022/01/26 15:44:25;;;;;;;13.27;10.03;;;1.00;99.90;;;;;;5032735;28;20481;-73
2022/01/26 15:49:53;;;;;;;16.77;10.63;;;1.00;99.90;;;;;;5032380;28;20482;-73